Phoenix (PHX/KPHX)

Information

Location
Phoenix, AZ
Local Time
17:14 / 5:14 pm
GMT Time
00:14 / 12:14 am
Gates
Unassigned
No FAA reported delays
METAR KPHX 222351Z 32009KT 10SM FEW100 BKN220 BKN270 26/09 A2980 RMK AO2 SLP077 T02610089 10278 20244 56022
TAF KPHX 222340Z 2300/2324 26012G20KT P6SM SCT080 BKN100 FM230800 26013KT P6SM VCSH FEW040 BKN060 FM231400 24008KT P6SM FEW060 OVC100 FM232100 27012G20KT P6SM FEW060 FEW200
  • No charts available